Weather at Goldfield Airport

Public forecast

Using degrees Fahrenheit for public forecast. Weather courtesy of forecast.io.

Closest aviation weather report (METAR) to Goldfield Airport

Closest report is Tonopah Airport, 21.5 nm (39.7 km) NNE. Retrieved 2021/06/12 09:56 UTC (28 minutes ago):

KTPH 120956Z AUTO 36009KT 10SM CLR 10/M19 A3009 RMK AO2 SLP128 T01001194

Closest aviation forecast (TAF) to Goldfield Airport

Closest forecast is Tonopah Airport, 21.5 nm (39.7 km) NNE. Retrieved 2021/06/12 06:22 UTC (4 hours ago):

TAF KTPH 120520Z 1206/1306 VRB06KT P6SM FEW200 FM122000 21011KT P6SM SKC